sensor_id;sensor_type;location;lat;lon;timestamp;P1;durP1;ratioP1;P2;durP2;ratioP2
11004;SDS011;5555;59.622;16.556;2022-12-19T00:01:30;9.60;;;2.53;;
11004;SDS011;5555;59.622;16.556;2022-12-19T00:03:59;12.97;;;3.30;;
11004;SDS011;5555;59.622;16.556;2022-12-19T00:06:27;11.20;;;3.20;;
11004;SDS011;5555;59.622;16.556;2022-12-19T00:08:54;15.50;;;2.87;;
11004;SDS011;5555;59.622;16.556;2022-12-19T00:11:21;11.00;;;2.80;;
11004;SDS011;5555;59.622;16.556;2022-12-19T00:13:48;12.03;;;2.93;;
11004;SDS011;5555;59.622;16.556;2022-12-19T00:16:21;10.33;;;2.83;;
11004;SDS011;5555;59.622;16.556;2022-12-19T00:18:49;11.73;;;3.23;;
11004;SDS011;5555;59.622;16.556;2022-12-19T00:21:16;11.27;;;2.80;;
11004;SDS011;5555;59.622;16.556;2022-12-19T00:23:44;7.47;;;2.57;;
11004;SDS011;5555;59.622;16.556;2022-12-19T00:26:11;8.87;;;2.47;;
11004;SDS011;5555;59.622;16.556;2022-12-19T00:28:38;5.83;;;2.43;;
11004;SDS011;5555;59.622;16.556;2022-12-19T00:31:05;7.80;;;2.73;;
11004;SDS011;5555;59.622;16.556;2022-12-19T00:33:31;7.83;;;2.70;;
11004;SDS011;5555;59.622;16.556;2022-12-19T00:35:57;6.17;;;2.33;;
11004;SDS011;5555;59.622;16.556;2022-12-19T00:38:24;7.60;;;2.73;;
11004;SDS011;5555;59.622;16.556;2022-12-19T00:40:50;12.30;;;3.37;;
11004;SDS011;5555;59.622;16.556;2022-12-19T00:43:16;7.97;;;2.57;;
11004;SDS011;5555;59.622;16.556;2022-12-19T00:45:41;9.50;;;2.33;;
11004;SDS011;5555;59.622;16.556;2022-12-19T00:48:07;10.47;;;2.80;;
11004;SDS011;5555;59.622;16.556;2022-12-19T00:50:32;7.67;;;2.30;;
11004;SDS011;5555;59.622;16.556;2022-12-19T00:52:58;6.93;;;2.47;;
11004;SDS011;5555;59.622;16.556;2022-12-19T00:55:23;9.53;;;2.87;;
11004;SDS011;5555;59.622;16.556;2022-12-19T00:57:49;10.30;;;2.60;;
11004;SDS011;5555;59.622;16.556;2022-12-19T01:00:15;6.40;;;2.43;;
11004;SDS011;5555;59.622;16.556;2022-12-19T01:02:41;9.83;;;2.87;;
11004;SDS011;5555;59.622;16.556;2022-12-19T01:05:07;7.93;;;2.30;;
11004;SDS011;5555;59.622;16.556;2022-12-19T01:07:34;8.17;;;2.53;;
11004;SDS011;5555;59.622;16.556;2022-12-19T01:10:00;5.50;;;2.37;;
11004;SDS011;5555;59.622;16.556;2022-12-19T01:12:26;6.10;;;2.13;;
11004;SDS011;5555;59.622;16.556;2022-12-19T01:15:10;11.13;;;2.80;;
11004;SDS011;5555;59.622;16.556;2022-12-19T01:17:36;12.73;;;3.10;;
11004;SDS011;5555;59.622;16.556;2022-12-19T01:20:01;14.50;;;3.03;;
11004;SDS011;5555;59.622;16.556;2022-12-19T01:22:28;11.17;;;2.37;;
11004;SDS011;5555;59.622;16.556;2022-12-19T01:24:53;14.67;;;2.90;;
11004;SDS011;5555;59.622;16.556;2022-12-19T01:27:19;7.87;;;2.57;;
11004;SDS011;5555;59.622;16.556;2022-12-19T01:29:45;10.00;;;2.80;;
11004;SDS011;5555;59.622;16.556;2022-12-19T01:32:10;12.77;;;3.03;;
11004;SDS011;5555;59.622;16.556;2022-12-19T01:34:36;7.43;;;2.90;;
11004;SDS011;5555;59.622;16.556;2022-12-19T01:37:01;11.23;;;3.30;;
11004;SDS011;5555;59.622;16.556;2022-12-19T01:39:27;12.63;;;3.20;;
11004;SDS011;5555;59.622;16.556;2022-12-19T01:41:53;8.80;;;4.17;;
11004;SDS011;5555;59.622;16.556;2022-12-19T01:44:18;8.90;;;3.50;;
11004;SDS011;5555;59.622;16.556;2022-12-19T01:46:48;11.87;;;3.40;;
11004;SDS011;5555;59.622;16.556;2022-12-19T01:49:35;9.23;;;2.93;;
11004;SDS011;5555;59.622;16.556;2022-12-19T01:52:05;11.33;;;3.50;;
11004;SDS011;5555;59.622;16.556;2022-12-19T01:54:36;10.20;;;2.83;;
11004;SDS011;5555;59.622;16.556;2022-12-19T01:57:05;11.57;;;3.73;;
11004;SDS011;5555;59.622;16.556;2022-12-19T01:59:36;12.07;;;3.20;;
11004;SDS011;5555;59.622;16.556;2022-12-19T02:02:10;16.10;;;4.03;;
11004;SDS011;5555;59.622;16.556;2022-12-19T02:04:40;9.37;;;3.17;;
11004;SDS011;5555;59.622;16.556;2022-12-19T02:07:08;8.23;;;3.20;;
11004;SDS011;5555;59.622;16.556;2022-12-19T02:09:35;11.67;;;3.67;;
11004;SDS011;5555;59.622;16.556;2022-12-19T02:12:01;13.27;;;3.50;;
11004;SDS011;5555;59.622;16.556;2022-12-19T02:14:27;12.20;;;4.23;;
11004;SDS011;5555;59.622;16.556;2022-12-19T02:16:56;8.53;;;3.50;;
11004;SDS011;5555;59.622;16.556;2022-12-19T02:22:15;10.37;;;3.13;;
11004;SDS011;5555;59.622;16.556;2022-12-19T02:33:17;12.33;;;3.63;;
11004;SDS011;5555;59.622;16.556;2022-12-19T02:35:56;9.87;;;3.23;;
11004;SDS011;5555;59.622;16.556;2022-12-19T02:38:56;8.47;;;3.10;;
11004;SDS011;5555;59.622;16.556;2022-12-19T02:41:34;11.67;;;3.50;;
11004;SDS011;5555;59.622;16.556;2022-12-19T02:44:19;10.17;;;3.00;;
11004;SDS011;5555;59.622;16.556;2022-12-19T02:46:57;7.17;;;2.70;;
11004;SDS011;5555;59.622;16.556;2022-12-19T02:49:26;8.53;;;3.03;;
11004;SDS011;5555;59.622;16.556;2022-12-19T02:54:58;8.67;;;2.87;;
11004;SDS011;5555;59.622;16.556;2022-12-19T02:57:50;9.03;;;3.23;;
11004;SDS011;5555;59.622;16.556;2022-12-19T03:00:28;8.33;;;3.00;;
11004;SDS011;5555;59.622;16.556;2022-12-19T03:08:46;8.33;;;3.10;;
11004;SDS011;5555;59.622;16.556;2022-12-19T03:11:19;7.10;;;2.87;;
11004;SDS011;5555;59.622;16.556;2022-12-19T03:14:21;10.77;;;3.37;;
11004;SDS011;5555;59.622;16.556;2022-12-19T03:16:42;8.93;;;3.10;;
11004;SDS011;5555;59.622;16.556;2022-12-19T03:19:08;11.33;;;2.97;;
11004;SDS011;5555;59.622;16.556;2022-12-19T03:21:41;7.83;;;2.50;;
11004;SDS011;5555;59.622;16.556;2022-12-19T03:24:13;7.47;;;2.93;;
11004;SDS011;5555;59.622;16.556;2022-12-19T03:26:44;6.57;;;2.77;;
11004;SDS011;5555;59.622;16.556;2022-12-19T03:29:18;6.93;;;2.77;;
11004;SDS011;5555;59.622;16.556;2022-12-19T03:31:50;6.33;;;2.40;;
11004;SDS011;5555;59.622;16.556;2022-12-19T03:34:21;10.17;;;3.30;;
11004;SDS011;5555;59.622;16.556;2022-12-19T03:36:49;8.73;;;2.80;;
11004;SDS011;5555;59.622;16.556;2022-12-19T03:39:19;6.83;;;2.63;;
11004;SDS011;5555;59.622;16.556;2022-12-19T03:41:47;7.20;;;2.87;;
11004;SDS011;5555;59.622;16.556;2022-12-19T03:44:34;5.00;;;2.27;;
11004;SDS011;5555;59.622;16.556;2022-12-19T03:47:19;9.07;;;2.83;;
11004;SDS011;5555;59.622;16.556;2022-12-19T03:50:02;8.03;;;2.73;;
11004;SDS011;5555;59.622;16.556;2022-12-19T03:52:40;8.07;;;2.67;;
11004;SDS011;5555;59.622;16.556;2022-12-19T03:55:40;7.73;;;2.57;;
11004;SDS011;5555;59.622;16.556;2022-12-19T03:58:12;12.57;;;3.23;;
11004;SDS011;5555;59.622;16.556;2022-12-19T04:00:43;7.07;;;2.20;;
11004;SDS011;5555;59.622;16.556;2022-12-19T04:03:14;10.07;;;2.70;;
11004;SDS011;5555;59.622;16.556;2022-12-19T04:05:41;7.90;;;2.73;;
11004;SDS011;5555;59.622;16.556;2022-12-19T04:08:09;6.53;;;2.77;;
11004;SDS011;5555;59.622;16.556;2022-12-19T04:10:44;6.43;;;2.20;;
11004;SDS011;5555;59.622;16.556;2022-12-19T04:13:15;5.83;;;1.83;;
11004;SDS011;5555;59.622;16.556;2022-12-19T04:18:16;7.30;;;2.37;;
11004;SDS011;5555;59.622;16.556;2022-12-19T04:20:44;7.10;;;2.20;;
11004;SDS011;5555;59.622;16.556;2022-12-19T04:23:17;8.10;;;2.43;;
11004;SDS011;5555;59.622;16.556;2022-12-19T04:25:48;8.27;;;2.20;;
11004;SDS011;5555;59.622;16.556;2022-12-19T04:30:48;6.37;;;2.27;;
11004;SDS011;5555;59.622;16.556;2022-12-19T04:33:15;8.63;;;2.40;;
11004;SDS011;5555;59.622;16.556;2022-12-19T04:35:40;7.53;;;2.07;;
11004;SDS011;5555;59.622;16.556;2022-12-19T04:38:06;9.50;;;2.80;;
11004;SDS011;5555;59.622;16.556;2022-12-19T04:40:32;7.57;;;2.73;;
11004;SDS011;5555;59.622;16.556;2022-12-19T04:42:59;7.30;;;2.40;;
11004;SDS011;5555;59.622;16.556;2022-12-19T04:45:24;8.27;;;2.37;;
11004;SDS011;5555;59.622;16.556;2022-12-19T04:47:50;9.20;;;2.60;;
11004;SDS011;5555;59.622;16.556;2022-12-19T04:50:16;7.77;;;2.50;;
11004;SDS011;5555;59.622;16.556;2022-12-19T04:52:41;8.47;;;2.17;;
11004;SDS011;5555;59.622;16.556;2022-12-19T04:55:07;7.50;;;2.70;;
11004;SDS011;5555;59.622;16.556;2022-12-19T04:57:33;9.63;;;2.33;;
11004;SDS011;5555;59.622;16.556;2022-12-19T04:59:58;9.83;;;2.90;;
11004;SDS011;5555;59.622;16.556;2022-12-19T05:02:24;9.73;;;3.07;;
11004;SDS011;5555;59.622;16.556;2022-12-19T05:04:50;9.87;;;2.37;;
11004;SDS011;5555;59.622;16.556;2022-12-19T05:07:19;9.63;;;3.10;;
11004;SDS011;5555;59.622;16.556;2022-12-19T05:09:44;10.73;;;3.07;;
11004;SDS011;5555;59.622;16.556;2022-12-19T05:12:10;9.57;;;3.47;;
11004;SDS011;5555;59.622;16.556;2022-12-19T05:14:35;9.90;;;3.23;;
11004;SDS011;5555;59.622;16.556;2022-12-19T05:17:01;7.50;;;2.73;;
11004;SDS011;5555;59.622;16.556;2022-12-19T05:19:27;8.10;;;3.27;;
11004;SDS011;5555;59.622;16.556;2022-12-19T05:21:52;8.47;;;3.57;;
11004;SDS011;5555;59.622;16.556;2022-12-19T05:24:18;10.03;;;2.97;;
11004;SDS011;5555;59.622;16.556;2022-12-19T05:26:44;12.93;;;3.00;;
11004;SDS011;5555;59.622;16.556;2022-12-19T05:29:09;8.20;;;3.00;;
11004;SDS011;5555;59.622;16.556;2022-12-19T05:31:35;10.77;;;3.60;;
11004;SDS011;5555;59.622;16.556;2022-12-19T05:34:01;14.73;;;3.50;;
11004;SDS011;5555;59.622;16.556;2022-12-19T05:36:26;9.30;;;3.43;;
11004;SDS011;5555;59.622;16.556;2022-12-19T05:38:52;11.53;;;3.87;;
11004;SDS011;5555;59.622;16.556;2022-12-19T05:41:18;10.67;;;4.60;;
11004;SDS011;5555;59.622;16.556;2022-12-19T05:43:45;14.47;;;5.53;;
11004;SDS011;5555;59.622;16.556;2022-12-19T05:46:14;19.83;;;6.80;;
11004;SDS011;5555;59.622;16.556;2022-12-19T05:48:40;15.17;;;7.17;;
11004;SDS011;5555;59.622;16.556;2022-12-19T05:51:05;11.77;;;8.20;;
11004;SDS011;5555;59.622;16.556;2022-12-19T05:53:33;16.77;;;9.77;;
11004;SDS011;5555;59.622;16.556;2022-12-19T05:56:04;20.13;;;12.10;;
11004;SDS011;5555;59.622;16.556;2022-12-19T05:58:31;21.13;;;11.93;;
11004;SDS011;5555;59.622;16.556;2022-12-19T06:01:07;21.77;;;14.03;;
11004;SDS011;5555;59.622;16.556;2022-12-19T06:03:35;25.63;;;15.30;;
11004;SDS011;5555;59.622;16.556;2022-12-19T06:06:02;31.57;;;17.27;;
11004;SDS011;5555;59.622;16.556;2022-12-19T06:08:29;33.37;;;20.40;;
11004;SDS011;5555;59.622;16.556;2022-12-19T06:10:57;34.73;;;21.13;;
11004;SDS011;5555;59.622;16.556;2022-12-19T06:13:27;38.30;;;24.10;;
11004;SDS011;5555;59.622;16.556;2022-12-19T06:15:59;40.47;;;26.67;;
11004;SDS011;5555;59.622;16.556;2022-12-19T06:18:36;37.50;;;25.23;;
11004;SDS011;5555;59.622;16.556;2022-12-19T06:21:04;38.37;;;27.70;;
11004;SDS011;5555;59.622;16.556;2022-12-19T06:23:32;42.30;;;28.23;;
11004;SDS011;5555;59.622;16.556;2022-12-19T06:25:59;42.07;;;28.13;;
11004;SDS011;5555;59.622;16.556;2022-12-19T06:28:26;42.60;;;29.23;;
11004;SDS011;5555;59.622;16.556;2022-12-19T06:30:56;42.30;;;28.07;;
11004;SDS011;5555;59.622;16.556;2022-12-19T06:33:26;40.20;;;28.27;;
11004;SDS011;5555;59.622;16.556;2022-12-19T06:35:57;42.60;;;28.77;;
11004;SDS011;5555;59.622;16.556;2022-12-19T06:38:23;41.83;;;30.57;;
11004;SDS011;5555;59.622;16.556;2022-12-19T06:40:49;48.30;;;30.40;;
11004;SDS011;5555;59.622;16.556;2022-12-19T06:43:33;48.53;;;31.13;;
11004;SDS011;5555;59.622;16.556;2022-12-19T06:45:59;47.53;;;30.47;;
11004;SDS011;5555;59.622;16.556;2022-12-19T06:48:26;45.23;;;29.67;;
11004;SDS011;5555;59.622;16.556;2022-12-19T06:50:52;47.33;;;31.00;;
11004;SDS011;5555;59.622;16.556;2022-12-19T06:53:17;45.37;;;30.90;;
11004;SDS011;5555;59.622;16.556;2022-12-19T06:55:43;42.77;;;29.53;;
11004;SDS011;5555;59.622;16.556;2022-12-19T06:58:11;42.40;;;31.03;;
11004;SDS011;5555;59.622;16.556;2022-12-19T07:00:37;47.70;;;30.00;;
11004;SDS011;5555;59.622;16.556;2022-12-19T07:03:03;41.40;;;29.07;;
11004;SDS011;5555;59.622;16.556;2022-12-19T07:05:32;39.40;;;28.47;;
11004;SDS011;5555;59.622;16.556;2022-12-19T07:07:58;46.10;;;28.73;;
11004;SDS011;5555;59.622;16.556;2022-12-19T07:10:23;42.97;;;29.17;;
11004;SDS011;5555;59.622;16.556;2022-12-19T07:12:49;38.20;;;28.07;;
11004;SDS011;5555;59.622;16.556;2022-12-19T07:15:14;35.87;;;28.27;;
11004;SDS011;5555;59.622;16.556;2022-12-19T07:17:40;35.50;;;26.60;;
11004;SDS011;5555;59.622;16.556;2022-12-19T07:20:06;39.93;;;28.00;;
11004;SDS011;5555;59.622;16.556;2022-12-19T07:22:33;40.80;;;27.23;;
11004;SDS011;5555;59.622;16.556;2022-12-19T07:25:00;40.17;;;27.07;;
11004;SDS011;5555;59.622;16.556;2022-12-19T07:27:26;35.40;;;26.33;;
11004;SDS011;5555;59.622;16.556;2022-12-19T07:29:53;35.93;;;26.90;;
11004;SDS011;5555;59.622;16.556;2022-12-19T07:32:19;36.83;;;26.40;;
11004;SDS011;5555;59.622;16.556;2022-12-19T07:34:46;38.37;;;26.23;;
11004;SDS011;5555;59.622;16.556;2022-12-19T07:37:11;37.17;;;26.03;;
11004;SDS011;5555;59.622;16.556;2022-12-19T07:39:37;33.77;;;25.37;;
11004;SDS011;5555;59.622;16.556;2022-12-19T07:42:03;34.57;;;24.87;;
11004;SDS011;5555;59.622;16.556;2022-12-19T07:44:28;32.67;;;23.70;;
11004;SDS011;5555;59.622;16.556;2022-12-19T07:46:54;30.90;;;22.10;;
11004;SDS011;5555;59.622;16.556;2022-12-19T07:49:20;37.13;;;23.43;;
11004;SDS011;5555;59.622;16.556;2022-12-19T07:51:46;30.23;;;23.63;;
11004;SDS011;5555;59.622;16.556;2022-12-19T07:54:12;29.73;;;22.73;;
11004;SDS011;5555;59.622;16.556;2022-12-19T07:56:37;29.33;;;21.60;;
11004;SDS011;5555;59.622;16.556;2022-12-19T07:59:03;33.40;;;22.77;;
11004;SDS011;5555;59.622;16.556;2022-12-19T08:01:28;32.10;;;21.63;;
11004;SDS011;5555;59.622;16.556;2022-12-19T08:03:54;29.33;;;21.17;;
11004;SDS011;5555;59.622;16.556;2022-12-19T08:06:20;27.27;;;20.63;;
11004;SDS011;5555;59.622;16.556;2022-12-19T08:08:45;25.27;;;19.67;;
11004;SDS011;5555;59.622;16.556;2022-12-19T08:11:12;25.17;;;19.43;;
11004;SDS011;5555;59.622;16.556;2022-12-19T08:13:41;23.50;;;18.83;;
11004;SDS011;5555;59.622;16.556;2022-12-19T08:16:07;26.07;;;19.07;;
11004;SDS011;5555;59.622;16.556;2022-12-19T08:18:33;25.93;;;18.73;;
11004;SDS011;5555;59.622;16.556;2022-12-19T08:20:59;23.73;;;17.67;;
11004;SDS011;5555;59.622;16.556;2022-12-19T08:23:24;23.80;;;17.53;;
11004;SDS011;5555;59.622;16.556;2022-12-19T08:26:00;23.77;;;16.23;;
11004;SDS011;5555;59.622;16.556;2022-12-19T08:28:27;22.77;;;15.30;;
11004;SDS011;5555;59.622;16.556;2022-12-19T08:30:54;20.30;;;15.50;;
11004;SDS011;5555;59.622;16.556;2022-12-19T08:33:19;20.33;;;14.57;;
11004;SDS011;5555;59.622;16.556;2022-12-19T08:35:45;23.13;;;14.93;;
11004;SDS011;5555;59.622;16.556;2022-12-19T08:38:11;18.57;;;15.17;;
11004;SDS011;5555;59.622;16.556;2022-12-19T08:40:36;17.47;;;14.77;;
11004;SDS011;5555;59.622;16.556;2022-12-19T08:43:02;18.60;;;14.87;;
11004;SDS011;5555;59.622;16.556;2022-12-19T08:45:27;20.77;;;15.17;;
11004;SDS011;5555;59.622;16.556;2022-12-19T08:47:53;18.93;;;14.00;;
11004;SDS011;5555;59.622;16.556;2022-12-19T08:50:19;17.60;;;13.43;;
11004;SDS011;5555;59.622;16.556;2022-12-19T08:52:44;14.33;;;11.53;;
11004;SDS011;5555;59.622;16.556;2022-12-19T08:55:10;17.90;;;11.80;;
11004;SDS011;5555;59.622;16.556;2022-12-19T08:57:35;13.87;;;11.20;;
11004;SDS011;5555;59.622;16.556;2022-12-19T09:00:02;15.53;;;10.23;;
11004;SDS011;5555;59.622;16.556;2022-12-19T09:02:29;14.73;;;10.50;;
11004;SDS011;5555;59.622;16.556;2022-12-19T09:04:55;13.57;;;9.97;;
11004;SDS011;5555;59.622;16.556;2022-12-19T09:07:20;14.80;;;9.93;;
11004;SDS011;5555;59.622;16.556;2022-12-19T09:09:46;11.60;;;10.00;;
11004;SDS011;5555;59.622;16.556;2022-12-19T09:12:12;12.23;;;9.63;;
11004;SDS011;5555;59.622;16.556;2022-12-19T09:14:38;11.00;;;9.50;;
11004;SDS011;5555;59.622;16.556;2022-12-19T09:17:04;11.30;;;9.30;;
11004;SDS011;5555;59.622;16.556;2022-12-19T09:19:29;11.23;;;8.50;;
11004;SDS011;5555;59.622;16.556;2022-12-19T09:21:55;12.47;;;9.03;;
11004;SDS011;5555;59.622;16.556;2022-12-19T09:24:21;12.40;;;8.67;;
11004;SDS011;5555;59.622;16.556;2022-12-19T09:26:46;12.43;;;9.17;;
11004;SDS011;5555;59.622;16.556;2022-12-19T09:29:12;12.43;;;9.00;;
11004;SDS011;5555;59.622;16.556;2022-12-19T09:31:38;13.10;;;9.20;;
11004;SDS011;5555;59.622;16.556;2022-12-19T09:34:04;13.93;;;9.07;;
11004;SDS011;5555;59.622;16.556;2022-12-19T09:36:30;11.97;;;10.07;;
11004;SDS011;5555;59.622;16.556;2022-12-19T09:38:56;13.00;;;9.23;;
11004;SDS011;5555;59.622;16.556;2022-12-19T09:47:17;11.10;;;8.60;;
11004;SDS011;5555;59.622;16.556;2022-12-19T09:49:47;11.60;;;8.40;;
11004;SDS011;5555;59.622;16.556;2022-12-19T09:52:59;10.43;;;8.07;;
11004;SDS011;5555;59.622;16.556;2022-12-19T09:55:15;9.07;;;7.90;;
11004;SDS011;5555;59.622;16.556;2022-12-19T10:00:39;10.67;;;7.20;;
11004;SDS011;5555;59.622;16.556;2022-12-19T10:03:14;11.23;;;7.80;;
11004;SDS011;5555;59.622;16.556;2022-12-19T10:05:56;12.10;;;7.97;;
11004;SDS011;5555;59.622;16.556;2022-12-19T10:08:44;9.50;;;7.10;;
11004;SDS011;5555;59.622;16.556;2022-12-19T10:19:31;9.40;;;6.40;;
11004;SDS011;5555;59.622;16.556;2022-12-19T10:22:12;8.17;;;7.00;;
11004;SDS011;5555;59.622;16.556;2022-12-19T10:24:52;8.00;;;6.13;;
11004;SDS011;5555;59.622;16.556;2022-12-19T10:30:18;8.90;;;6.40;;
11004;SDS011;5555;59.622;16.556;2022-12-19T10:35:28;7.43;;;5.93;;
11004;SDS011;5555;59.622;16.556;2022-12-19T10:40:42;7.07;;;5.83;;
11004;SDS011;5555;59.622;16.556;2022-12-19T10:46:07;8.57;;;5.57;;
11004;SDS011;5555;59.622;16.556;2022-12-19T10:48:55;7.60;;;5.23;;
11004;SDS011;5555;59.622;16.556;2022-12-19T10:51:25;6.03;;;4.93;;
11004;SDS011;5555;59.622;16.556;2022-12-19T10:53:53;7.67;;;5.43;;
11004;SDS011;5555;59.622;16.556;2022-12-19T10:56:25;7.57;;;5.57;;
11004;SDS011;5555;59.622;16.556;2022-12-19T10:58:52;7.03;;;5.03;;
11004;SDS011;5555;59.622;16.556;2022-12-19T11:01:23;7.47;;;5.00;;
11004;SDS011;5555;59.622;16.556;2022-12-19T11:04:14;6.57;;;5.03;;
11004;SDS011;5555;59.622;16.556;2022-12-19T11:06:50;6.57;;;5.50;;
11004;SDS011;5555;59.622;16.556;2022-12-19T11:11:47;7.00;;;4.67;;
11004;SDS011;5555;59.622;16.556;2022-12-19T11:14:27;6.90;;;5.50;;
11004;SDS011;5555;59.622;16.556;2022-12-19T11:16:54;6.20;;;4.60;;
11004;SDS011;5555;59.622;16.556;2022-12-19T11:19:21;5.73;;;4.43;;
11004;SDS011;5555;59.622;16.556;2022-12-19T11:21:52;7.83;;;4.90;;
11004;SDS011;5555;59.622;16.556;2022-12-19T11:24:24;7.40;;;5.00;;
11004;SDS011;5555;59.622;16.556;2022-12-19T11:26:59;9.43;;;5.87;;
11004;SDS011;5555;59.622;16.556;2022-12-19T11:29:40;7.20;;;4.80;;
11004;SDS011;5555;59.622;16.556;2022-12-19T11:32:21;7.37;;;5.70;;
11004;SDS011;5555;59.622;16.556;2022-12-19T11:35:00;7.03;;;5.67;;
11004;SDS011;5555;59.622;16.556;2022-12-19T11:37:38;7.70;;;5.63;;
11004;SDS011;5555;59.622;16.556;2022-12-19T11:42:50;6.60;;;5.00;;
11004;SDS011;5555;59.622;16.556;2022-12-19T11:45:38;5.97;;;5.00;;
11004;SDS011;5555;59.622;16.556;2022-12-19T11:48:19;9.63;;;5.70;;
11004;SDS011;5555;59.622;16.556;2022-12-19T11:53:26;7.00;;;5.23;;
11004;SDS011;5555;59.622;16.556;2022-12-19T11:56:13;8.83;;;6.20;;
11004;SDS011;5555;59.622;16.556;2022-12-19T11:58:41;8.87;;;6.00;;
11004;SDS011;5555;59.622;16.556;2022-12-19T12:01:40;8.00;;;6.40;;
11004;SDS011;5555;59.622;16.556;2022-12-19T12:07:00;11.57;;;7.10;;
11004;SDS011;5555;59.622;16.556;2022-12-19T12:12:22;10.43;;;7.07;;
11004;SDS011;5555;59.622;16.556;2022-12-19T12:23:23;9.60;;;6.97;;
11004;SDS011;5555;59.622;16.556;2022-12-19T12:26:02;10.77;;;7.67;;
11004;SDS011;5555;59.622;16.556;2022-12-19T12:42:05;14.03;;;10.33;;
11004;SDS011;5555;59.622;16.556;2022-12-19T12:44:42;14.00;;;9.80;;
11004;SDS011;5555;59.622;16.556;2022-12-19T12:47:17;21.97;;;11.80;;
11004;SDS011;5555;59.622;16.556;2022-12-19T12:49:54;20.27;;;11.87;;
11004;SDS011;5555;59.622;16.556;2022-12-19T12:54:55;15.90;;;10.93;;
11004;SDS011;5555;59.622;16.556;2022-12-19T13:00:13;17.90;;;12.27;;
11004;SDS011;5555;59.622;16.556;2022-12-19T13:02:51;21.33;;;12.47;;
11004;SDS011;5555;59.622;16.556;2022-12-19T13:07:53;18.90;;;11.83;;
11004;SDS011;5555;59.622;16.556;2022-12-19T13:10:29;19.00;;;12.27;;
11004;SDS011;5555;59.622;16.556;2022-12-19T13:13:05;19.87;;;13.53;;
11004;SDS011;5555;59.622;16.556;2022-12-19T13:15:40;19.80;;;13.63;;
11004;SDS011;5555;59.622;16.556;2022-12-19T13:20:57;18.70;;;13.37;;
11004;SDS011;5555;59.622;16.556;2022-12-19T13:26:02;20.30;;;13.30;;
11004;SDS011;5555;59.622;16.556;2022-12-19T13:33:43;21.87;;;14.23;;
11004;SDS011;5555;59.622;16.556;2022-12-19T13:39:59;21.40;;;15.47;;
11004;SDS011;5555;59.622;16.556;2022-12-19T13:42:13;27.83;;;16.60;;
11004;SDS011;5555;59.622;16.556;2022-12-19T13:45:00;23.40;;;15.17;;
11004;SDS011;5555;59.622;16.556;2022-12-19T13:47:31;24.70;;;14.23;;
11004;SDS011;5555;59.622;16.556;2022-12-19T13:50:03;22.63;;;16.33;;
11004;SDS011;5555;59.622;16.556;2022-12-19T13:52:30;23.67;;;15.30;;
11004;SDS011;5555;59.622;16.556;2022-12-19T13:54:56;24.47;;;15.43;;
11004;SDS011;5555;59.622;16.556;2022-12-19T13:57:30;28.13;;;17.17;;
11004;SDS011;5555;59.622;16.556;2022-12-19T14:00:00;25.50;;;16.20;;
11004;SDS011;5555;59.622;16.556;2022-12-19T14:02:32;28.40;;;17.33;;
11004;SDS011;5555;59.622;16.556;2022-12-19T14:05:02;29.00;;;18.23;;
11004;SDS011;5555;59.622;16.556;2022-12-19T14:10:13;26.13;;;17.17;;
11004;SDS011;5555;59.622;16.556;2022-12-19T14:12:42;29.27;;;18.27;;
11004;SDS011;5555;59.622;16.556;2022-12-19T14:15:30;26.00;;;17.87;;
11004;SDS011;5555;59.622;16.556;2022-12-19T14:18:06;26.17;;;16.77;;
11004;SDS011;5555;59.622;16.556;2022-12-19T14:20:42;26.27;;;17.50;;
11004;SDS011;5555;59.622;16.556;2022-12-19T14:23:08;27.47;;;18.30;;
11004;SDS011;5555;59.622;16.556;2022-12-19T14:25:53;29.23;;;18.30;;
11004;SDS011;5555;59.622;16.556;2022-12-19T14:28:27;29.80;;;18.67;;
11004;SDS011;5555;59.622;16.556;2022-12-19T14:31:09;34.30;;;19.10;;
11004;SDS011;5555;59.622;16.556;2022-12-19T14:33:42;27.70;;;18.20;;
11004;SDS011;5555;59.622;16.556;2022-12-19T14:36:10;28.10;;;17.90;;
11004;SDS011;5555;59.622;16.556;2022-12-19T14:38:36;29.37;;;17.80;;
11004;SDS011;5555;59.622;16.556;2022-12-19T14:41:02;30.73;;;19.00;;
11004;SDS011;5555;59.622;16.556;2022-12-19T14:43:29;30.50;;;19.07;;
11004;SDS011;5555;59.622;16.556;2022-12-19T14:48:55;30.50;;;19.80;;
11004;SDS011;5555;59.622;16.556;2022-12-19T14:51:27;30.80;;;19.30;;
11004;SDS011;5555;59.622;16.556;2022-12-19T14:56:33;28.10;;;19.30;;
11004;SDS011;5555;59.622;16.556;2022-12-19T15:04:58;30.70;;;18.70;;
11004;SDS011;5555;59.622;16.556;2022-12-19T15:07:32;28.73;;;19.67;;
11004;SDS011;5555;59.622;16.556;2022-12-19T15:10:41;27.37;;;19.00;;
11004;SDS011;5555;59.622;16.556;2022-12-19T15:12:59;32.77;;;18.70;;
11004;SDS011;5555;59.622;16.556;2022-12-19T15:18:36;27.80;;;18.97;;
11004;SDS011;5555;59.622;16.556;2022-12-19T15:21:05;27.80;;;19.70;;
11004;SDS011;5555;59.622;16.556;2022-12-19T15:23:36;30.80;;;19.13;;
11004;SDS011;5555;59.622;16.556;2022-12-19T15:26:02;28.67;;;20.00;;
11004;SDS011;5555;59.622;16.556;2022-12-19T15:28:38;29.87;;;19.03;;
11004;SDS011;5555;59.622;16.556;2022-12-19T15:36:50;27.83;;;18.67;;
11004;SDS011;5555;59.622;16.556;2022-12-19T15:39:16;29.40;;;19.87;;
11004;SDS011;5555;59.622;16.556;2022-12-19T15:41:42;30.17;;;19.27;;
11004;SDS011;5555;59.622;16.556;2022-12-19T15:44:30;31.03;;;21.23;;
11004;SDS011;5555;59.622;16.556;2022-12-19T15:47:05;27.97;;;19.80;;
11004;SDS011;5555;59.622;16.556;2022-12-19T15:49:36;28.23;;;19.43;;
11004;SDS011;5555;59.622;16.556;2022-12-19T15:52:04;30.13;;;20.53;;
11004;SDS011;5555;59.622;16.556;2022-12-19T15:54:37;30.27;;;19.23;;
11004;SDS011;5555;59.622;16.556;2022-12-19T15:57:03;30.37;;;19.63;;
11004;SDS011;5555;59.622;16.556;2022-12-19T15:59:33;30.60;;;21.40;;
11004;SDS011;5555;59.622;16.556;2022-12-19T16:02:07;31.93;;;20.27;;
11004;SDS011;5555;59.622;16.556;2022-12-19T16:04:39;29.10;;;19.77;;
11004;SDS011;5555;59.622;16.556;2022-12-19T16:07:15;29.07;;;19.77;;
11004;SDS011;5555;59.622;16.556;2022-12-19T16:09:45;32.77;;;20.40;;
11004;SDS011;5555;59.622;16.556;2022-12-19T16:12:12;31.73;;;20.23;;
11004;SDS011;5555;59.622;16.556;2022-12-19T16:14:43;32.93;;;19.23;;
11004;SDS011;5555;59.622;16.556;2022-12-19T16:17:20;30.50;;;20.00;;
11004;SDS011;5555;59.622;16.556;2022-12-19T16:19:47;28.93;;;19.60;;
11004;SDS011;5555;59.622;16.556;2022-12-19T16:22:20;33.23;;;21.60;;
11004;SDS011;5555;59.622;16.556;2022-12-19T16:24:47;30.50;;;20.63;;
11004;SDS011;5555;59.622;16.556;2022-12-19T16:27:48;29.73;;;19.70;;
11004;SDS011;5555;59.622;16.556;2022-12-19T16:32:50;28.83;;;19.17;;
11004;SDS011;5555;59.622;16.556;2022-12-19T16:35:17;32.07;;;19.83;;
11004;SDS011;5555;59.622;16.556;2022-12-19T16:37:47;28.27;;;19.73;;
11004;SDS011;5555;59.622;16.556;2022-12-19T16:40:16;29.10;;;19.77;;
11004;SDS011;5555;59.622;16.556;2022-12-19T16:42:49;30.63;;;20.17;;
11004;SDS011;5555;59.622;16.556;2022-12-19T16:45:27;30.27;;;20.97;;
11004;SDS011;5555;59.622;16.556;2022-12-19T16:47:52;30.70;;;20.57;;
11004;SDS011;5555;59.622;16.556;2022-12-19T16:50:22;33.17;;;20.03;;
11004;SDS011;5555;59.622;16.556;2022-12-19T16:52:50;35.90;;;22.47;;
11004;SDS011;5555;59.622;16.556;2022-12-19T16:55:16;23.43;;;16.60;;
11004;SDS011;5555;59.622;16.556;2022-12-19T16:57:43;30.50;;;21.80;;
11004;SDS011;5555;59.622;16.556;2022-12-19T17:00:15;29.67;;;20.27;;
11004;SDS011;5555;59.622;16.556;2022-12-19T17:03:02;33.13;;;22.37;;
11004;SDS011;5555;59.622;16.556;2022-12-19T17:05:37;30.90;;;21.53;;
11004;SDS011;5555;59.622;16.556;2022-12-19T17:08:05;36.63;;;22.07;;